AirNav   Everest Fuels
 
 961 users online  

IS83 Untied Acres Airport
Belvidere, Illinois, USA

GOING TO BELVIDERE?


FAA INFORMATION EFFECTIVE 01 DECEMBER 2022

Location

FAA Identifier: IS83
Lat/Long: 42-13-39.0000N 088-46-02.0000W
42-13.650000N 088-46.033333W
42.2275000,-88.7672222
(estimated)
Elevation: 800 ft. / 244 m (estimated)
Variation: 01W (1995)
From city: 6 miles SE of BELVIDERE, IL
Time zone: UTC -6 (UTC -5 during Daylight Saving Time)
Zip code: 61008

Airport Operations

Airport use: Private use. Permission required prior to landing
Activation date: 05/1999
Control tower: no
ARTCC: CHICAGO CENTER
FSS: KANKAKEE FLIGHT SERVICE STATION
Attendance: UNATNDD
Wind indicator: yes
Segmented circle: no

Airport Communications

WX ASOS at RFD (15 nm W): PHONE 815-484-6229
WX AWOS-3 at DKB (18 nm S): 119.075 (815-748-2350)

Nearby radio navigation aids

VOR radial/distance  VOR name  Freq  Var
JVLr140/24.9JANESVILLE VOR/DME114.3003E
DPAr315/27.5DUPAGE VOR/DME108.4002E
OBKr273/36.2NORTHBROOK VOR/DME113.0002W
PLLr062/37.2POLO VOR/DME111.2003E

Airport Services

Runway Information

Runway 9/27

Dimensions: 2000 x 70 ft. / 610 x 21 m
Surface: turf
RUNWAY 9  RUNWAY 27
Traffic pattern: leftright
Displaced threshold: 160 ft.240 ft.
Obstructions: 10 ft. road, 210 ft. from runway15 ft. road, 45 ft. from runway

Airport Ownership and Management from official FAA records

Ownership: Privately-owned
Owner: THOMAS HARRIS
6859 MARENGO RD
BELVIDERE, IL 61008-1490
Phone (815) 480-4974
Manager: THOMAS HARRIS
6859 MARENGO RD
BELVIDERE, IL 61008-1490
Phone (815) 480-4974

Airport Operational Statistics

Aircraft based on the field: 1
Single engine airplanes: 1
    

Additional Remarks

FOR CD CTC CHICAGO ARTCC AT 630-906-8921.

Instrument Procedures

There are no published instrument procedures at IS83.

Some nearby airports with instrument procedures:

C77 - Poplar Grove Airport (6 nm NW)
KRFD - Chicago/Rockford International Airport (15 nm W)
KDKB - De Kalb Taylor Municipal Airport (18 nm S)
44C - Beloit Airport (18 nm NW)
3CK - Lake in the Hills Airport (20 nm E)
 
Loc | Ops | Rwys | IFR | FBO | Links
Com | Nav | Svcs | Stats | Notes
Area around IS83 (Untied Acres Airport)
 
Road maps at: MapQuest Bing Google
 
Aerial photo
WARNING: Photo may not be current or correct
Aerial photo of IS83 (Untied Acres Airport)
Do you have a better or more recent aerial photo of Untied Acres Airport that you would like to share? If so, please send us your photo.

 
Sectional chart

 
Airport distance calculator
Flying to Untied Acres Airport? Find the distance to fly.

From to IS83

Sunrise and sunset
Times for 04-Dec-2022
 Local
(UTC-6)
 Zulu
(UTC)
Morning civil twilight06:3712:37
Sunrise07:0813:08
Sunset16:2222:22
Evening civil twilight16:5422:54

Current date and time
Zulu (UTC)  05-Dec-2022 02:19:59
Local (UTC-6)  04-Dec-2022 20:19:59
 
METAR
KRFD 
15nm W 
050154Z 15005KT 10SM CLR M02/M09 A3001 RMK AO2 SLP173 T10221089 $
KDKB 
18nm S 
050155Z AUTO 20010KT 10SM CLR M03/M07 A3001 RMK AO2 T10261071
KRPJ 
25nm SW 
050155Z AUTO 20011KT 10SM CLR M03/M07 A3001 RMK AO2 T10301072 TSNO
KJVL 
26nm NW 
050145Z 00000KT 10SM CLR M01/M09 A2997
KDPA 
30nm SE 
050152Z 21012KT 10SM CLR 01/M08 A3001 RMK AO2 SLP173 T00061083
TAF
KRFD 
15nm W 
042055Z 0421/0518 22009KT P6SM FEW250 FM050200 21008KT P6SM SCT250 WS010/24035KT FM051200 20011G17KT P6SM BKN100
NOTAMs
Click for the latest NOTAMs
NOTAMs are issued by the DoD/FAA and will open in a separate window not controlled by AirNav.

 

 
 

Would you like to see your business listed on this page?

 If your business provides an interesting product or service to pilots, flight crews, aircraft, or users of the Untied Acres Airport, you should consider listing it here.  To start the listing process, click on the button below
 
Add a business
 

Other Pages about Untied Acres Airport

Update a link
 
Copyright © AirNav, LLC. All rights reserved. Privacy Policy  Contact